createdAt,value
2018-02-14T00:00:57.859Z,100359.42
2018-02-14T00:03:25.617Z,100366.67
2018-02-14T00:05:53.212Z,100361.55
2018-02-14T00:08:20.839Z,100362.73
2018-02-14T00:10:49.354Z,100361.80
2018-02-14T00:13:17.109Z,100363.57
2018-02-14T00:15:49.617Z,100367.73
2018-02-14T00:18:17.119Z,100375.70
2018-02-14T00:20:44.635Z,100371.14
2018-02-14T00:23:12.337Z,100366.86
2018-02-14T00:25:39.930Z,100364.99
2018-02-14T00:28:07.438Z,100369.11
2018-02-14T00:30:35.005Z,100369.64
2018-02-14T00:33:02.478Z,100372.31
2018-02-14T00:35:29.961Z,100369.52
2018-02-14T00:37:57.677Z,100377.83
2018-02-14T00:40:25.309Z,100385.98
2018-02-14T00:42:55.779Z,100382.19
2018-02-14T00:45:23.345Z,100376.14
2018-02-14T00:47:51.007Z,100381.31
2018-02-14T00:50:18.710Z,100381.98
2018-02-14T00:52:46.228Z,100384.41
2018-02-14T00:55:13.767Z,100388.58
2018-02-14T00:57:41.208Z,100388.39
2018-02-14T01:00:09.023Z,100385.77
2018-02-14T01:02:36.526Z,100389.30
2018-02-14T01:05:04.007Z,100395.23
2018-02-14T01:07:32.199Z,100391.14
2018-02-14T01:09:59.696Z,100396.31
2018-02-14T01:12:27.239Z,100388.64
2018-02-14T01:14:54.706Z,100397.88
2018-02-14T01:17:22.230Z,100405.62
2018-02-14T01:19:55.413Z,100400.00
2018-02-14T01:22:22.909Z,100404.16
2018-02-14T01:24:50.397Z,100397.09
2018-02-14T01:27:17.851Z,100407.66
2018-02-14T01:29:45.311Z,100402.43
2018-02-14T01:32:12.768Z,100400.41
2018-02-14T01:34:40.347Z,100404.92
2018-02-14T01:37:07.824Z,100405.05
2018-02-14T01:39:35.362Z,100404.86
2018-02-14T01:42:02.882Z,100408.64
2018-02-14T01:44:30.361Z,100411.03
2018-02-14T01:46:57.855Z,100410.80
2018-02-14T01:49:25.364Z,100407.85
2018-02-14T01:51:52.805Z,100410.09
2018-02-14T01:54:20.299Z,100403.32
2018-02-14T01:56:47.796Z,100398.46
2018-02-14T01:59:15.234Z,100410.16
2018-02-14T02:01:42.747Z,100409.80
2018-02-14T02:04:10.295Z,100411.70
2018-02-14T02:06:37.778Z,100409.73
2018-02-14T02:09:05.270Z,100403.18
2018-02-14T02:11:32.767Z,100416.34
2018-02-14T02:14:00.291Z,100411.03
2018-02-14T02:16:27.762Z,100409.58
2018-02-14T02:18:55.251Z,100421.70
2018-02-14T02:21:22.705Z,100418.06
2018-02-14T02:23:50.163Z,100418.06
2018-02-14T02:26:18.477Z,100419.56
2018-02-14T02:28:46.047Z,100414.52
2018-02-14T02:31:13.527Z,100419.45
2018-02-14T02:33:41.873Z,100421.62
2018-02-14T02:36:10.272Z,100415.00
2018-02-14T02:38:37.736Z,100418.14
2018-02-14T02:41:05.211Z,100420.72
2018-02-14T02:43:32.684Z,100417.20
2018-02-14T02:46:00.476Z,100416.45
2018-02-14T02:48:27.933Z,100423.41
2018-02-14T02:50:55.464Z,100423.70
2018-02-14T02:53:23.032Z,100420.49
2018-02-14T02:55:55.730Z,100419.86
2018-02-14T02:58:23.166Z,100427.37
2018-02-14T03:00:50.654Z,100426.59
2018-02-14T03:03:18.122Z,100431.45
2018-02-14T03:05:45.608Z,100436.61
2018-02-14T03:08:13.063Z,100439.03
2018-02-14T03:10:41.436Z,100439.21
2018-02-14T03:13:08.887Z,100436.93
2018-02-14T03:15:36.350Z,100438.08
2018-02-14T03:18:03.910Z,100438.00
2018-02-14T03:20:31.372Z,100437.30
2018-02-14T03:22:58.856Z,100438.23
2018-02-14T03:25:26.320Z,100444.13
2018-02-14T03:27:53.768Z,100445.82
2018-02-14T03:30:21.223Z,100448.55
2018-02-14T03:32:48.662Z,100452.58
2018-02-14T03:35:16.358Z,100450.37
2018-02-14T03:37:43.792Z,100450.11
2018-02-14T03:40:11.222Z,100451.74
2018-02-14T03:42:38.679Z,100450.63
2018-02-14T03:45:06.154Z,100456.89
2018-02-14T03:47:33.576Z,100464.33
2018-02-14T03:50:01.050Z,100466.16
2018-02-14T03:52:28.532Z,100462.42
2018-02-14T03:54:55.962Z,100463.35
2018-02-14T03:57:23.474Z,100468.09
2018-02-14T03:59:51.016Z,100470.59
2018-02-14T04:02:18.490Z,100477.37
2018-02-14T04:04:45.970Z,100474.50
2018-02-14T04:07:13.438Z,100486.20
2018-02-14T04:09:40.928Z,100479.88
2018-02-14T04:12:08.366Z,100492.03
2018-02-14T04:14:35.901Z,100485.63
2018-02-14T04:17:03.396Z,100488.55
2018-02-14T04:19:30.870Z,100492.14
2018-02-14T04:21:58.390Z,100490.34
2018-02-14T04:24:25.930Z,100493.77
2018-02-14T04:26:54.176Z,100494.94
2018-02-14T04:29:21.874Z,100499.88
2018-02-14T04:31:49.334Z,100500.89
2018-02-14T04:34:16.779Z,100509.57
2018-02-14T04:36:44.360Z,100502.94
2018-02-14T04:39:11.816Z,100509.95
2018-02-14T04:41:39.306Z,100512.91
2018-02-14T04:44:06.746Z,100511.61
2018-02-14T04:46:34.462Z,100518.75
2018-02-14T04:49:01.920Z,100522.39
2018-02-14T04:51:29.391Z,100519.50
2018-02-14T04:53:56.860Z,100529.03
2018-02-14T04:56:24.437Z,100525.20
2018-02-14T04:58:51.864Z,100535.66
2018-02-14T05:01:19.350Z,100539.98
2018-02-14T05:03:46.820Z,100545.42
2018-02-14T05:06:14.306Z,100545.75
2018-02-14T05:08:41.790Z,100539.13
2018-02-14T05:11:09.452Z,100542.34
2018-02-14T05:13:36.912Z,100542.58
2018-02-14T05:16:04.437Z,100544.58
2018-02-14T05:18:31.990Z,100546.19
2018-02-14T05:20:59.496Z,100556.22
2018-02-14T05:23:26.991Z,100565.56
2018-02-14T05:25:54.600Z,100565.45
2018-02-14T05:28:22.064Z,100565.23
2018-02-14T05:30:52.608Z,100564.97
2018-02-14T05:33:20.298Z,100570.10
2018-02-14T05:35:47.764Z,100577.55
2018-02-14T05:38:15.300Z,100578.64
2018-02-14T05:40:43.887Z,100584.50
2018-02-14T05:43:15.200Z,100581.48
2018-02-14T05:45:44.998Z,100596.16
2018-02-14T05:48:13.651Z,100598.47
2018-02-14T05:50:41.270Z,100596.36
2018-02-14T05:53:08.738Z,100601.99
2018-02-14T05:55:36.256Z,100605.48
2018-02-14T05:58:03.775Z,100615.57
2018-02-14T06:00:31.228Z,100617.16
2018-02-14T06:02:58.804Z,100618.27
2018-02-14T06:05:26.301Z,100623.10
2018-02-14T06:07:53.870Z,100624.84
2018-02-14T06:10:21.364Z,100623.45
2018-02-14T06:12:48.892Z,100625.89
2018-02-14T06:15:16.394Z,100624.08
2018-02-14T06:17:43.892Z,100625.06
2018-02-14T06:20:11.353Z,100625.96
2018-02-14T06:22:38.810Z,100640.94
2018-02-14T06:25:06.287Z,100638.34
2018-02-14T06:27:34.628Z,100639.92
2018-02-14T06:30:02.140Z,100635.91
2018-02-14T06:32:29.643Z,100648.16
2018-02-14T06:34:57.204Z,100639.61
2018-02-14T06:37:24.755Z,100648.55
2018-02-14T06:39:52.341Z,100646.55
2018-02-14T06:42:19.804Z,100651.87
2018-02-14T06:44:47.267Z,100652.56
2018-02-14T06:47:14.834Z,100655.58
2018-02-14T06:49:42.285Z,100657.98
2018-02-14T06:52:09.951Z,100657.19
2018-02-14T06:54:37.467Z,100668.01
2018-02-14T06:57:04.951Z,100666.80
2018-02-14T06:59:32.507Z,100669.72
2018-02-14T07:02:00.023Z,100670.75
2018-02-14T07:04:27.520Z,100676.77
2018-02-14T07:06:55.014Z,100681.36
2018-02-14T07:09:22.597Z,100677.75
2018-02-14T07:11:50.156Z,100678.38
2018-02-14T07:14:17.657Z,100677.55
2018-02-14T07:16:45.245Z,100682.09
2018-02-14T07:19:12.932Z,100679.89
2018-02-14T07:21:40.541Z,100678.68
2018-02-14T07:24:08.099Z,100679.39
2018-02-14T07:26:35.657Z,100685.13
2018-02-14T07:29:04.051Z,100690.42
2018-02-14T07:31:32.577Z,100695.56
2018-02-14T07:34:00.179Z,100705.60
2018-02-14T07:36:28.950Z,100707.63
2018-02-14T07:38:56.408Z,100712.11
2018-02-14T07:41:23.929Z,100710.22
2018-02-14T07:43:51.373Z,100710.52
2018-02-14T07:46:18.822Z,100716.64
2018-02-14T07:48:46.282Z,100715.84
2018-02-14T07:51:13.881Z,100723.36
2018-02-14T07:53:41.391Z,100728.47
2018-02-14T07:56:09.012Z,100722.75
2018-02-14T07:58:36.553Z,100720.73
2018-02-14T08:01:04.047Z,100729.06
2018-02-14T08:03:31.626Z,100730.47
2018-02-14T08:05:59.125Z,100729.27
2018-02-14T08:08:26.633Z,100731.77
2018-02-14T08:10:54.713Z,100733.27
2018-02-14T08:13:22.177Z,100732.34
2018-02-14T08:15:49.649Z,100735.42
2018-02-14T08:18:17.135Z,100734.38
2018-02-14T08:20:44.576Z,100741.56
2018-02-14T08:23:12.215Z,100738.50
2018-02-14T08:25:39.719Z,100739.50
2018-02-14T08:28:07.244Z,100737.84
2018-02-14T08:30:34.773Z,100729.80
2018-02-14T08:33:02.290Z,100736.34
2018-02-14T08:35:30.391Z,100735.81
2018-02-14T08:37:57.952Z,100738.45
2018-02-14T08:40:25.707Z,100737.23
2018-02-14T08:42:53.404Z,100740.02
2018-02-14T08:45:22.104Z,100731.89
2018-02-14T08:47:49.857Z,100744.72
2018-02-14T08:50:17.621Z,100743.76
2018-02-14T08:52:45.153Z,100743.86
2018-02-14T08:55:12.771Z,100743.31
2018-02-14T08:57:40.275Z,100747.77
2018-02-14T09:00:07.751Z,100746.55
2018-02-14T09:02:35.259Z,100757.59
2018-02-14T09:05:02.915Z,100744.77
2018-02-14T09:07:31.147Z,100746.84
2018-02-14T09:09:58.795Z,100744.87
2018-02-14T09:12:26.569Z,100754.63
2018-02-14T09:14:54.182Z,100745.98
2018-02-14T09:17:21.849Z,100745.19
2018-02-14T09:19:49.506Z,100743.88
2018-02-14T09:22:17.010Z,100748.50
2018-02-14T09:24:44.813Z,100742.47
2018-02-14T09:27:12.432Z,100742.16
2018-02-14T09:29:39.978Z,100741.13
2018-02-14T09:32:07.595Z,100738.69
2018-02-14T09:34:35.728Z,100751.59
2018-02-14T09:37:03.283Z,100747.51
2018-02-14T09:39:30.848Z,100755.86
2018-02-14T09:41:58.374Z,100759.77
2018-02-14T09:44:25.876Z,100755.43
2018-02-14T09:46:53.452Z,100758.81
2018-02-14T09:49:21.024Z,100760.70
2018-02-14T09:51:48.553Z,100764.30
2018-02-14T09:54:16.150Z,100770.66
2018-02-14T09:56:43.633Z,100777.27
2018-02-14T09:59:11.114Z,100787.55
2018-02-14T10:01:38.609Z,100787.28
2018-02-14T10:04:06.282Z,100782.08
2018-02-14T10:06:33.806Z,100784.58
2018-02-14T10:09:01.301Z,100782.34
2018-02-14T10:11:28.837Z,100782.85
2018-02-14T10:13:56.369Z,100780.90
2018-02-14T10:16:23.877Z,100779.73
2018-02-14T10:18:51.544Z,100775.86
2018-02-14T10:21:19.042Z,100770.08
2018-02-14T10:23:46.575Z,100774.22
2018-02-14T10:26:14.071Z,100771.00
2018-02-14T10:28:41.542Z,100770.55
2018-02-14T10:31:09.063Z,100780.48
2018-02-14T10:33:38.010Z,100781.31
2018-02-14T10:36:05.540Z,100777.09
2018-02-14T10:38:33.164Z,100774.37
2018-02-14T10:41:00.682Z,100777.58
2018-02-14T10:43:28.188Z,100776.23
2018-02-14T10:45:55.666Z,100766.00
2018-02-14T10:48:23.126Z,100765.02
2018-02-14T10:50:50.769Z,100767.52
2018-02-14T10:53:18.335Z,100771.23
2018-02-14T10:55:45.796Z,100772.09
2018-02-14T10:58:13.264Z,100776.45
2018-02-14T11:00:46.316Z,100775.80
2018-02-14T11:06:15.763Z,100780.94
2018-02-14T11:08:43.368Z,100776.58
2018-02-14T11:11:11.194Z,100779.28
2018-02-14T11:13:38.744Z,100778.46
2018-02-14T11:16:06.670Z,100781.97
2018-02-14T11:18:34.185Z,100791.62
2018-02-14T11:21:01.727Z,100783.75
2018-02-14T11:23:29.281Z,100777.36
2018-02-14T11:25:56.879Z,100778.55
2018-02-14T11:28:24.818Z,100770.53
2018-02-14T11:30:52.330Z,100776.41
2018-02-14T11:33:19.852Z,100777.64
2018-02-14T11:35:47.320Z,100774.20
2018-02-14T11:38:14.882Z,100777.09
2018-02-14T11:40:42.748Z,100783.88
2018-02-14T11:43:10.410Z,100784.55
2018-02-14T11:45:38.352Z,100788.48
2018-02-14T11:48:06.131Z,100784.28
2018-02-14T11:50:33.812Z,100785.05
2018-02-14T11:53:01.421Z,100790.17
2018-02-14T11:55:29.179Z,100791.55
2018-02-14T11:57:56.902Z,100789.14
2018-02-14T12:00:24.399Z,100798.64
2018-02-14T12:02:52.429Z,100796.43
2018-02-14T12:05:20.028Z,100796.16
2018-02-14T12:07:47.541Z,100796.69
2018-02-14T12:10:15.157Z,100789.17
2018-02-14T12:12:42.670Z,100795.16
2018-02-14T12:15:10.318Z,100791.19
2018-02-14T12:17:37.858Z,100786.08
2018-02-14T12:20:05.456Z,100791.41
2018-02-14T12:22:32.984Z,100788.79
2018-02-14T12:25:00.510Z,100791.66
2018-02-14T12:27:28.100Z,100794.19
2018-02-14T12:29:55.617Z,100786.30
2018-02-14T12:32:23.144Z,100785.64
2018-02-14T12:34:50.788Z,100784.72
2018-02-14T12:37:18.359Z,100777.81
2018-02-14T12:39:47.157Z,100771.81
2018-02-14T12:42:15.799Z,100772.44
2018-02-14T12:44:43.281Z,100767.58
2018-02-14T12:47:10.814Z,100764.48
2018-02-14T12:49:38.373Z,100767.95
2018-02-14T12:52:05.913Z,100761.13
2018-02-14T12:54:33.425Z,100770.20
2018-02-14T12:57:00.927Z,100762.79
2018-02-14T12:59:28.590Z,100766.23
2018-02-14T13:01:56.083Z,100764.73
2018-02-14T13:04:23.625Z,100760.27
2018-02-14T13:06:51.158Z,100760.52
2018-02-14T13:09:18.690Z,100765.52
2018-02-14T13:11:46.182Z,100761.95
2018-02-14T13:14:13.649Z,100756.30
2018-02-14T13:16:41.168Z,100762.55
2018-02-14T13:19:08.684Z,100745.56
2018-02-14T13:21:36.456Z,100749.13
2018-02-14T13:24:03.952Z,100754.70
2018-02-14T13:26:31.464Z,100748.17
2018-02-14T13:28:59.846Z,100748.57
2018-02-14T13:31:27.482Z,100751.81
2018-02-14T13:33:54.966Z,100749.98
2018-02-14T13:36:23.354Z,100757.25
2018-02-14T13:38:50.925Z,100752.80
2018-02-14T13:41:18.516Z,100758.51
2018-02-14T13:43:46.073Z,100752.33
2018-02-14T13:46:13.656Z,100756.59
2018-02-14T13:48:41.376Z,100757.17
2018-02-14T13:51:09.009Z,100751.72
2018-02-14T13:53:36.494Z,100749.70
2018-02-14T13:56:04.004Z,100753.41
2018-02-14T13:58:32.094Z,100757.73
2018-02-14T14:00:59.579Z,100757.09
2018-02-14T14:03:27.181Z,100758.86
2018-02-14T14:05:54.787Z,100760.55
2018-02-14T14:08:22.611Z,100766.28
2018-02-14T14:10:50.194Z,100766.04
2018-02-14T14:13:17.700Z,100761.38
2018-02-14T14:15:45.303Z,100769.70
2018-02-14T14:18:13.087Z,100773.29
2018-02-14T14:20:40.720Z,100769.91
2018-02-14T14:23:08.373Z,100783.61
2018-02-14T14:25:35.890Z,100776.45
2018-02-14T14:28:03.404Z,100780.95
2018-02-14T14:30:31.205Z,100784.95
2018-02-14T14:32:58.732Z,100780.58
2018-02-14T14:35:26.266Z,100778.67
2018-02-14T14:37:53.868Z,100779.84
2018-02-14T14:40:21.687Z,100787.17
2018-02-14T14:42:49.178Z,100788.42
2018-02-14T14:45:16.838Z,100793.64
2018-02-14T14:47:44.362Z,100792.73
2018-02-14T14:50:11.950Z,100807.84
2018-02-14T14:52:39.466Z,100804.54
2018-02-14T14:55:07.013Z,100809.48
2018-02-14T14:57:34.535Z,100809.45
2018-02-14T15:00:02.068Z,100806.96
2018-02-14T15:02:29.617Z,100816.47
2018-02-14T15:04:57.108Z,100820.32
2018-02-14T15:07:32.020Z,100821.82
2018-02-14T15:09:59.930Z,100816.63
2018-02-14T15:12:27.454Z,100817.00
2018-02-14T15:14:55.012Z,100815.98
2018-02-14T15:17:22.491Z,100813.81
2018-02-14T15:19:49.979Z,100809.70
2018-02-14T15:22:17.503Z,100812.20
2018-02-14T15:24:45.202Z,100816.05
2018-02-14T15:27:12.932Z,100813.23
2018-02-14T15:29:40.489Z,100813.16
2018-02-14T15:32:08.127Z,100813.98
2018-02-14T15:34:35.726Z,100818.35
2018-02-14T15:37:03.236Z,100817.36
2018-02-14T15:39:30.835Z,100818.55
2018-02-14T15:41:58.547Z,100815.50
2018-02-14T15:44:26.151Z,100820.23
2018-02-14T15:46:53.776Z,100818.26
2018-02-14T15:49:21.295Z,100811.31
2018-02-14T15:51:48.769Z,100813.91
2018-02-14T15:54:16.451Z,100816.64
2018-02-14T15:56:44.221Z,100809.81
2018-02-14T15:59:11.860Z,100815.14
2018-02-14T16:01:39.438Z,100816.29
2018-02-14T16:04:06.988Z,100812.20
2018-02-14T16:06:34.557Z,100814.69
2018-02-14T16:09:03.671Z,100809.22
2018-02-14T16:11:31.245Z,100812.63
2018-02-14T16:13:58.931Z,100817.33
2018-02-14T16:16:26.755Z,100815.39
2018-02-14T16:18:54.275Z,100823.87
2018-02-14T16:21:21.749Z,100819.91
2018-02-14T16:23:49.242Z,100827.39
2018-02-14T16:26:16.745Z,100828.16
2018-02-14T16:28:44.185Z,100837.77
2018-02-14T16:31:11.709Z,100832.19
2018-02-14T16:33:39.142Z,100834.99
2018-02-14T16:36:06.615Z,100838.41
2018-02-14T16:38:34.115Z,100836.78
2018-02-14T16:41:01.630Z,100838.58
2018-02-14T16:43:29.092Z,100846.17
2018-02-14T16:45:56.728Z,100849.25
2018-02-14T16:48:24.219Z,100850.98
2018-02-14T16:50:51.739Z,100861.87
2018-02-14T16:53:20.004Z,100866.66
2018-02-14T16:55:51.340Z,100863.51
2018-02-14T16:58:24.781Z,100864.45
2018-02-14T17:00:52.289Z,100855.15
2018-02-14T17:03:19.787Z,100858.66
2018-02-14T17:05:47.676Z,100860.27
2018-02-14T17:08:15.259Z,100858.48
2018-02-14T17:10:43.030Z,100855.84
2018-02-14T17:13:10.641Z,100859.22
2018-02-14T17:15:38.217Z,100858.02
2018-02-14T17:18:06.123Z,100857.40
2018-02-14T17:20:33.805Z,100855.85
2018-02-14T17:23:01.552Z,100856.20
2018-02-14T17:25:29.099Z,100860.66
2018-02-14T17:27:56.585Z,100863.05
2018-02-14T17:30:24.243Z,100866.86
2018-02-14T17:32:51.737Z,100867.70
2018-02-14T17:35:19.348Z,100866.21
2018-02-14T17:37:47.751Z,100873.41
2018-02-14T17:40:15.229Z,100874.83
2018-02-14T17:42:42.689Z,100879.02
2018-02-14T17:45:10.247Z,100886.62
2018-02-14T17:47:37.773Z,100881.82
2018-02-14T17:50:05.459Z,100889.31
2018-02-14T17:52:33.103Z,100887.09
2018-02-14T17:55:00.831Z,100885.59
2018-02-14T17:57:28.427Z,100893.55
2018-02-14T17:59:55.932Z,100894.14
2018-02-14T18:02:23.533Z,100886.39
2018-02-14T18:04:51.236Z,100898.03
2018-02-14T18:07:18.883Z,100896.72
2018-02-14T18:09:46.713Z,100897.55
2018-02-14T18:12:14.227Z,100889.42
2018-02-14T18:14:41.871Z,100900.55
2018-02-14T18:17:09.439Z,100904.78
2018-02-14T18:19:38.650Z,100911.20
2018-02-14T18:22:06.187Z,100910.09
2018-02-14T18:24:34.088Z,100908.96
2018-02-14T18:27:01.638Z,100909.98
2018-02-14T18:29:29.241Z,100911.81
2018-02-14T18:31:56.778Z,100910.73
2018-02-14T18:34:24.441Z,100915.11
2018-02-14T18:36:52.061Z,100915.52
2018-02-14T18:39:19.618Z,100910.86
2018-02-14T18:41:47.173Z,100913.72
2018-02-14T18:44:14.727Z,100905.99
2018-02-14T18:46:42.218Z,100911.98
2018-02-14T18:49:10.594Z,100909.64
2018-02-14T18:51:38.254Z,100911.02
2018-02-14T18:54:06.308Z,100921.37
2018-02-14T18:56:33.785Z,100920.33
2018-02-14T18:59:01.263Z,100915.19
2018-02-14T19:01:28.814Z,100918.23
2018-02-14T19:03:56.420Z,100924.33
2018-02-14T19:06:24.031Z,100931.02
2018-02-14T19:08:51.798Z,100934.89
2018-02-14T19:11:19.360Z,100928.02
2018-02-14T19:13:47.007Z,100933.33
2018-02-14T19:16:14.842Z,100931.48
2018-02-14T19:18:44.810Z,100935.96
2018-02-14T19:21:13.552Z,100939.66
2018-02-14T19:23:41.104Z,100944.95
2018-02-14T19:26:08.667Z,100944.66
2018-02-14T19:28:42.654Z,100947.52
2018-02-14T19:31:10.200Z,100951.50
2018-02-14T19:33:37.730Z,100957.62
2018-02-14T19:36:05.294Z,100959.11
2018-02-14T19:38:33.038Z,100953.88
2018-02-14T19:41:00.592Z,100955.61
2018-02-14T19:43:28.238Z,100958.61
2018-02-14T19:45:55.800Z,100961.25
2018-02-14T19:48:23.428Z,100960.54
2018-02-14T19:50:51.010Z,100964.26
2018-02-14T19:53:18.750Z,100966.67
2018-02-14T19:55:46.236Z,100962.16
2018-02-14T19:58:13.921Z,100963.20
2018-02-14T20:00:41.398Z,100955.97
2018-02-14T20:03:08.927Z,100960.66
2018-02-14T20:05:36.472Z,100956.91
2018-02-14T20:08:04.036Z,100961.30
2018-02-14T20:10:31.780Z,100953.64
2018-02-14T20:12:59.387Z,100958.83
2018-02-14T20:15:27.228Z,100954.11
2018-02-14T20:17:54.698Z,100953.24
2018-02-14T20:20:22.346Z,100958.65
2018-02-14T20:22:50.744Z,100953.05
2018-02-14T20:25:18.314Z,100961.69
2018-02-14T20:27:46.021Z,100956.31
2018-02-14T20:30:13.740Z,100944.98
2018-02-14T20:32:41.292Z,100949.37
2018-02-14T20:35:08.852Z,100947.35
2018-02-14T20:37:36.355Z,100941.08
2018-02-14T20:40:03.892Z,100937.33
2018-02-14T20:42:31.394Z,100931.41
2018-02-14T20:44:58.963Z,100933.95
2018-02-14T20:47:26.448Z,100926.82
2018-02-14T20:49:53.982Z,100928.66
2018-02-14T20:52:21.477Z,100926.56
2018-02-14T20:54:50.074Z,100923.41
2018-02-14T20:57:17.545Z,100929.94
2018-02-14T20:59:45.104Z,100932.29
2018-02-14T21:02:12.589Z,100930.08
2018-02-14T21:04:40.172Z,100928.20
2018-02-14T21:07:07.750Z,100926.31
2018-02-14T21:09:36.855Z,100930.29
2018-02-14T21:12:04.380Z,100925.83
2018-02-14T21:14:31.922Z,100925.17
2018-02-14T21:16:59.481Z,100932.71
2018-02-14T21:19:27.196Z,100931.23
2018-02-14T21:21:54.939Z,100936.11
2018-02-14T21:24:22.398Z,100930.39
2018-02-14T21:26:50.296Z,100937.89
2018-02-14T21:29:18.136Z,100940.41
2018-02-14T21:31:45.684Z,100939.34
2018-02-14T21:34:13.143Z,100941.20
2018-02-14T21:36:40.900Z,100939.09
2018-02-14T21:39:08.402Z,100937.50
2018-02-14T21:41:36.710Z,100937.91
2018-02-14T21:44:04.222Z,100934.61
2018-02-14T21:46:31.787Z,100924.27
2018-02-14T21:48:59.304Z,100922.75
2018-02-14T21:51:26.981Z,100920.58
2018-02-14T21:53:54.512Z,100917.44
2018-02-14T21:56:27.200Z,100912.00
2018-02-14T21:58:54.776Z,100908.81
2018-02-14T22:01:22.358Z,100908.81
2018-02-14T22:03:49.968Z,100909.35
2018-02-14T22:06:17.452Z,100914.16
2018-02-14T22:08:44.943Z,100909.54
2018-02-14T22:11:12.518Z,100906.59
2018-02-14T22:13:40.121Z,100904.56
2018-02-14T22:16:07.612Z,100904.58
2018-02-14T22:18:35.169Z,100902.26
2018-02-14T22:21:02.737Z,100901.53
2018-02-14T22:23:30.292Z,100895.36
2018-02-14T22:25:57.816Z,100896.27
2018-02-14T22:28:25.489Z,100897.50
2018-02-14T22:30:53.080Z,100894.90
2018-02-14T22:33:20.586Z,100891.80
2018-02-14T22:35:48.096Z,100882.62
2018-02-14T22:38:16.723Z,100880.81
2018-02-14T22:40:44.478Z,100872.12
2018-02-14T22:43:12.107Z,100878.93
2018-02-14T22:45:39.639Z,100874.88
2018-02-14T22:48:07.419Z,100869.62
2018-02-14T22:50:34.978Z,100862.47
2018-02-14T22:53:02.500Z,100863.33
2018-02-14T22:55:30.012Z,100859.94
2018-02-14T22:57:57.519Z,100858.45
2018-02-14T23:00:25.100Z,100863.84
2018-02-14T23:02:52.642Z,100865.42
2018-02-14T23:05:21.327Z,100858.37
2018-02-14T23:07:49.705Z,100866.82
2018-02-14T23:10:18.131Z,100862.88
2018-02-14T23:12:45.719Z,100869.35
2018-02-14T23:15:13.246Z,100868.28
2018-02-14T23:17:40.793Z,100861.22
2018-02-14T23:20:08.376Z,100867.70
2018-02-14T23:22:36.079Z,100875.31
2018-02-14T23:25:03.531Z,100863.72
2018-02-14T23:27:31.055Z,100861.91
2018-02-14T23:29:58.580Z,100868.17
2018-02-14T23:32:26.131Z,100862.22
2018-02-14T23:34:53.625Z,100861.91
2018-02-14T23:37:21.121Z,100854.83
2018-02-14T23:39:48.581Z,100850.22
2018-02-14T23:42:16.031Z,100844.77
2018-02-14T23:44:43.645Z,100846.58
2018-02-14T23:47:11.075Z,100846.39
2018-02-14T23:49:38.772Z,100854.77
2018-02-14T23:52:06.307Z,100860.80
2018-02-14T23:54:33.885Z,100853.43
2018-02-14T23:57:01.344Z,100843.54
2018-02-14T23:59:28.785Z,100848.67
